This is the latest recevied weather packets stored in our database for station/object KD4WXI. If no packets are shown the sender has not sent any weather packets the latest 10 day(s).
| Time | Temp. | Humidity | Pressure | Rain* | Wind** | Luminosity | Snow |
|---|---|---|---|---|---|---|---|
| 1778011372 | 26.11° C | 36% | 1014.8 hPa | 0 mm | - | 522 W/m² | - |
| 1778011067 | 26.67° C | 36% | 1014.9 hPa | 0 mm | - | 582 W/m² | - |
| 1778010765 | 26.67° C | 38% | 1014.7 hPa | 0 mm | - | 162 W/m² | - |
| 1778010462 | 26.67° C | 38% | 1014.6 hPa | 0 mm | - | 521 W/m² | - |
| 1778010158 | 26.67° C | 37% | 1014.6 hPa | 0 mm | - | 613 W/m² | - |
| 1778009854 | 26.67° C | 37% | 1014.8 hPa | 0 mm | - | 635 W/m² | - |
| 1778009552 | 26.67° C | 37% | 1015 hPa | 0 mm | - | 671 W/m² | - |
| 1778009250 | 26.67° C | 37% | 1014.8 hPa | 0 mm | - | 551 W/m² | - |
| 1778008948 | 26.67° C | 38% | 1015.3 hPa | 0 mm | - | 532 W/m² | - |
| 1778008645 | 26.67° C | 36% | 1015.3 hPa | 0 mm | - | 460 W/m² | - |
| 1778008344 | 25.56° C | 38% | 1015.6 hPa | 0 mm | - | 676 W/m² | - |
| 1778008040 | 26.11° C | 37% | 1015.7 hPa | 0 mm | - | 681 W/m² | - |
| 1778007739 | 26.67° C | 35% | 1015.7 hPa | 0 mm | - | 699 W/m² | - |
| 1778007436 | 26.67° C | 34% | 1015.7 hPa | 0 mm | - | 696 W/m² | - |
| 1778007133 | 26.11° C | 35% | 1015.9 hPa | 0 mm | - | 652 W/m² | - |
| 1778006829 | 26.11° C | 35% | 1015.8 hPa | 0 mm | - | 427 W/m² | - |
| 1778006527 | 26.11° C | 34% | 1015.7 hPa | 0 mm | - | 758 W/m² | - |
| 1778006223 | 25.56° C | 37% | 1016 hPa | 0 mm | - | 635 W/m² | - |
| 1778005921 | 25.56° C | 36% | 1016.1 hPa | 0 mm | - | 611 W/m² | - |
| 1778005616 | 26.11° C | 36% | 1016.2 hPa | 0 mm | - | 588 W/m² | - |
| 1778005314 | 26.67° C | 37% | 1016.1 hPa | 0 mm | - | 671 W/m² | - |
| 1778005010 | 26.67° C | 36% | 1016.4 hPa | 0 mm | - | 784 W/m² | - |
| 1778004708 | 25.56° C | 38% | 1016.6 hPa | 0 mm | - | 805 W/m² | - |
| 1778004403 | 25.56° C | 38% | 1016.4 hPa | 0 mm | - | 515 W/m² | - |
| 1778004101 | 26.67° C | 36% | 1016.6 hPa | 0 mm | - | 519 W/m² | - |
* Rain latest hour (hover to see other rain measurements)
** Current wind speed in m/s (hover to see current wind gust speed)